Flight Track Log - Related Links

Times and Time Zones

All times are in EDT time to prevent confusion due to time zone crossing. See the AWI3680 flight status page for this flight to view local times or setup timezone preferences in your user account.

Time Position Orientation Groundspeed Altitude Reporting Facility
EDT Latitude Longitude Course Direction KTS MPH feet Rate Location/Type
Sun 08:12:19 PM 39.8833 -75.2167 309° West 154 177 1,000  Level Philadelphia TRACON
Sun 08:12:37 PM 39.8667 -75.2000 142° Southeast 168 193 1,600 1,846 Climbing Philadelphia TRACON
Sun 08:13:37 PM 39.8667 -75.1167 90° East 228 262 3,400 2,200 Climbing Philadelphia TRACON
Sun 08:14:00 PM 42.6392 -73.6598 309° West  Level FlightAware Approximate
Sun 08:14:37 PM 39.8500 -75.0167 102° East 284 327 6,000  Level Philadelphia TRACON
Sun 08:15:00 PM 42.6409 -73.6626 309° West  Level FlightAware Approximate
Sun 08:15:37 PM 39.8333 -74.9167 102° East 291 335 8,800  Level Philadelphia TRACON
Sun 08:16:00 PM 42.6426 -73.6654 309° West  Level FlightAware Approximate
Sun 08:17:00 PM 42.6442 -73.6682 309° West  Level FlightAware Approximate
Sun 08:17:27 PM 39.8011 -74.7347 103° East 304 350 12,000  Level New York Center
Sun 08:18:28 PM 39.8689 -74.6386 47° Northeast 304 350 12,700 1,636 Climbing New York Center
Sun 08:19:28 PM 39.9506 -74.5592 37° Northeast 318 366 15,300 2,050 Climbing New York Center
Sun 08:20:28 PM 40.0322 -74.4794 37° Northeast 342 394 16,800 1,339 Climbing New York Center
Sun 08:21:29 PM 40.1247 -74.3894 37° Northeast 365 420 18,000 1,033 Climbing New York Center
Sun 08:22:30 PM 40.2108 -74.3042 37° Northeast 383 441 18,900 908 Climbing New York Center
Sun 08:23:28 PM 40.2919 -74.2350 33° Northeast 383 441 19,800 966 Climbing New York Center
Sun 08:24:28 PM 40.3858 -74.1661 29° Northeast 383 441 20,800 700 Climbing New York Center
Sun 08:25:28 PM 40.4836 -74.0917 30° Northeast 394 453 21,200 497 Climbing New York Center
Sun 08:27:29 PM 40.7044 -73.9322 29° Northeast 437 503 22,300 530 Climbing Boston Center
Sun 08:28:29 PM 40.8058 -73.8439 33° Northeast 432 497 22,800 600 Climbing Boston Center
Sun 08:29:29 PM 40.8944 -73.7361 43° Northeast 432 497 23,500 500 Climbing Boston Center
Sun 08:30:29 PM 40.9728 -73.6358 44° Northeast 432 497 23,800 -300 Climbing Boston Center
Sun 08:31:29 PM 41.0633 -73.5358 40° Northeast 422 486 22,900 -700 Descending Boston Center
Sun 08:32:29 PM 41.1578 -73.4656 29° Northeast 400 460 22,400 -773 Descending Boston Center
Sun 08:33:41 PM 41.2542 -73.3953 29° Northeast 389 448 21,200 -1,818 Descending Boston Center
Sun 08:34:41 PM 41.3794 -73.3753 North 347 399 18,400 -1,600 Descending Boston Center
Sun 08:35:41 PM 41.4669 -73.3931 351° North 347 399 18,000 -200 Descending Boston Center
Sun 08:36:41 PM 41.5731 -73.4142 352° North 352 405 18,000 -100 Level Boston Center
Sun 08:37:41 PM 41.6625 -73.4294 353° North 352 405 17,800 -200 Descending Boston Center
Sun 08:39:00 PM 41.6644 -73.4255 58° Northeast  Level FlightAware Approximate
Sun 08:46:00 PM 41.6824 -73.4316 340° North  Level Estimated
Sun 08:47:00 PM 41.6843 -73.4292 44° Northeast  Level FlightAware Approximate
Sun 08:48:00 PM 41.6863 -73.4267 44° Northeast  Level FlightAware Approximate
Sun 08:49:00 PM 41.6882 -73.4243 44° Northeast  Level FlightAware Approximate
Sun 08:50:00 PM 41.6901 -73.4218 44° Northeast  Level FlightAware Approximate
Sun 08:51:00 PM 41.6921 -73.4193 44° Northeast  Level FlightAware Approximate
Sun 08:52:00 PM 41.6940 -73.4169 44° Northeast  Level FlightAware Approximate
Sun 08:53:00 PM 41.6959 -73.4144 44° Northeast  Level FlightAware Approximate
Sun 08:54:00 PM 41.6978 -73.4120 44° Northeast  Level FlightAware Approximate
Sun 08:55:00 PM 41.7004 -73.4129 343° North  Level Estimated
Sun 08:56:00 PM 41.7031 -73.4132 356° North  Level FlightAware Approximate
Sun 08:57:00 PM 41.7057 -73.4134 356° North  Level FlightAware Approximate
Sun 08:58:00 PM 41.7084 -73.4137 356° North  Level FlightAware Approximate
Sun 08:59:00 PM 41.7110 -73.4140 356° North  Level FlightAware Approximate
Sun 09:00:00 PM 41.7137 -73.4143 356° North  Level FlightAware Approximate
Sun 09:01:00 PM 41.7163 -73.4145 356° North  Level FlightAware Approximate
Sun 09:02:00 PM 41.7190 -73.4148 356° North  Level FlightAware Approximate
Sun 09:03:00 PM 41.7216 -73.4151 356° North  Level FlightAware Approximate
Sun 09:04:00 PM 41.7243 -73.4153 356° North  Level FlightAware Approximate
Sun 09:05:00 PM 41.7269 -73.4156 356° North  Level FlightAware Approximate
Sun 09:06:00 PM 41.7296 -73.4159 356° North  Level FlightAware Approximate
Sun 09:07:00 PM 41.7322 -73.4161 356° North  Level FlightAware Approximate
Sun 09:08:00 PM 41.7349 -73.4164 356° North  Level FlightAware Approximate
Sun 09:09:00 PM 41.7375 -73.4167 356° North  Level FlightAware Approximate
Sun 09:10:00 PM 41.7402 -73.4169 356° North  Level FlightAware Approximate
Sun 09:11:00 PM 41.7428 -73.4172 356° North  Level FlightAware Approximate
Sun 09:12:00 PM 41.7455 -73.4175 356° North  Level FlightAware Approximate
Sun 09:13:00 PM 41.7481 -73.4178 356° North  Level FlightAware Approximate
Sun 09:14:00 PM 41.7508 -73.4180 356° North  Level FlightAware Approximate
Sun 09:15:00 PM 41.7534 -73.4183 356° North  Level FlightAware Approximate
Sun 09:16:00 PM 41.7561 -73.4186 356° North  Level FlightAware Approximate
Sun 09:17:00 PM 41.7587 -73.4188 356° North  Level FlightAware Approximate
Sun 09:18:00 PM 41.7614 -73.4191 356° North  Level FlightAware Approximate
Sun 09:19:00 PM 41.7640 -73.4194 356° North  Level FlightAware Approximate
Sun 09:20:00 PM 41.7667 -73.4196 356° North  Level FlightAware Approximate
Sun 09:21:00 PM 41.7693 -73.4199 356° North  Level FlightAware Approximate
Sun 09:22:00 PM 41.7720 -73.4202 356° North  Level FlightAware Approximate
Sun 09:23:00 PM 41.7746 -73.4205 356° North  Level FlightAware Approximate
Sun 09:24:00 PM 41.7773 -73.4207 356° North  Level FlightAware Approximate
Sun 09:25:00 PM 41.7799 -73.4210 356° North  Level FlightAware Approximate
Sun 09:26:00 PM 41.7826 -73.4213 356° North  Level FlightAware Approximate
Sun 09:27:00 PM 41.7852 -73.4215 356° North  Level FlightAware Approximate
Sun 09:28:00 PM 41.7879 -73.4218 356° North  Level FlightAware Approximate
Sun 09:29:00 PM 41.7905 -73.4221 356° North  Level FlightAware Approximate
Sun 09:30:00 PM 41.7932 -73.4223 356° North  Level FlightAware Approximate
Sun 09:31:00 PM 41.7958 -73.4226 356° North  Level FlightAware Approximate
Sun 09:32:00 PM 41.7985 -73.4229 356° North  Level FlightAware Approximate
Sun 09:33:00 PM 41.8011 -73.4232 356° North  Level FlightAware Approximate
Sun 09:34:00 PM 41.8038 -73.4234 356° North  Level FlightAware Approximate
Sun 09:35:00 PM 41.8064 -73.4237 356° North  Level FlightAware Approximate
Sun 09:36:00 PM 41.8091 -73.4240 356° North  Level FlightAware Approximate
Sun 09:37:00 PM 41.8117 -73.4242 356° North  Level FlightAware Approximate
Sun 09:38:00 PM 41.8144 -73.4245 356° North  Level FlightAware Approximate
Sun 09:39:00 PM 41.8170 -73.4248 356° North  Level FlightAware Approximate
Sun 09:40:00 PM 41.8197 -73.4250 356° North  Level FlightAware Approximate
Sun 09:41:00 PM 41.8223 -73.4253 356° North  Level FlightAware Approximate
Sun 09:42:00 PM 41.8250 -73.4256 356° North  Level FlightAware Approximate
Sun 09:43:00 PM 41.8276 -73.4259 356° North  Level FlightAware Approximate
Sun 09:44:00 PM 41.8303 -73.4261 356° North  Level FlightAware Approximate
Sun 09:45:00 PM 41.8329 -73.4264 356° North  Level FlightAware Approximate
Sun 09:46:00 PM 41.8356 -73.4267 356° North  Level FlightAware Approximate
Sun 09:47:00 PM 41.8382 -73.4269 356° North  Level FlightAware Approximate
Sun 09:48:00 PM 41.8409 -73.4272 356° North  Level FlightAware Approximate
Sun 09:49:00 PM 41.8435 -73.4275 356° North  Level FlightAware Approximate
Sun 09:50:00 PM 41.8462 -73.4277 356° North  Level FlightAware Approximate
Sun 09:51:00 PM 41.8488 -73.4280 356° North  Level FlightAware Approximate
Sun 09:52:00 PM 41.8515 -73.4283 356° North  Level FlightAware Approximate
Sun 09:53:00 PM 41.8541 -73.4286 356° North  Level FlightAware Approximate
Sun 09:54:00 PM 41.8568 -73.4288 356° North  Level FlightAware Approximate
Sun 09:55:00 PM 41.8594 -73.4291 356° North  Level FlightAware Approximate
Sun 09:56:00 PM 41.8621 -73.4294 356° North  Level FlightAware Approximate
Sun 09:57:00 PM 41.8647 -73.4297 356° North  Level FlightAware Approximate
Sun 09:58:00 PM 41.8674 -73.4299 356° North  Level FlightAware Approximate
Sun 09:59:00 PM 41.8700 -73.4302 356° North  Level FlightAware Approximate
Sun 10:00:00 PM 41.8726 -73.4313 344° North  Level Estimated
Sun 10:01:00 PM 41.8751 -73.4321 346° North  Level FlightAware Approximate
Sun 10:02:00 PM 41.8777 -73.4330 346° North  Level FlightAware Approximate
Sun 10:03:00 PM 41.8803 -73.4338 346° North  Level FlightAware Approximate
Sun 10:04:00 PM 41.8829 -73.4346 346° North  Level FlightAware Approximate
Sun 10:05:00 PM 41.8855 -73.4355 346° North  Level FlightAware Approximate
Sun 10:06:00 PM 41.8881 -73.4363 346° North  Level FlightAware Approximate
Sun 10:07:00 PM 41.8907 -73.4372 346° North  Level FlightAware Approximate
Sun 10:08:00 PM 41.8933 -73.4380 346° North  Level FlightAware Approximate
Sun 10:09:00 PM 41.8959 -73.4388 346° North  Level FlightAware Approximate
Sun 10:10:00 PM 41.8985 -73.4397 346° North  Level FlightAware Approximate
Sun 10:11:00 PM 41.9011 -73.4405 346° North  Level FlightAware Approximate
Sun 10:12:00 PM 41.9036 -73.4414 346° North  Level FlightAware Approximate
Sun 10:13:00 PM 41.9062 -73.4422 346° North  Level FlightAware Approximate
Sun 10:14:00 PM 41.9088 -73.4430 346° North  Level FlightAware Approximate
Sun 10:15:00 PM 41.9114 -73.4439 346° North  Level FlightAware Approximate
Sun 10:16:00 PM 41.9140 -73.4447 346° North  Level FlightAware Approximate
Sun 10:17:00 PM 41.9166 -73.4456 346° North  Level FlightAware Approximate
Sun 10:18:00 PM 41.9192 -73.4464 346° North  Level FlightAware Approximate
Sun 10:19:00 PM 41.9218 -73.4472 346° North  Level FlightAware Approximate
Sun 10:20:00 PM 41.9244 -73.4481 346° North  Level FlightAware Approximate
Sun 10:21:00 PM 41.9269 -73.4489 346° North  Level FlightAware Approximate
Sun 10:22:00 PM 41.9295 -73.4498 346° North  Level FlightAware Approximate
Sun 10:23:00 PM 41.9321 -73.4506 346° North  Level FlightAware Approximate
Sun 10:24:00 PM 41.9347 -73.4514 346° North  Level FlightAware Approximate
Sun 10:25:00 PM 41.9373 -73.4523 346° North  Level FlightAware Approximate
Sun 10:26:00 PM 41.9399 -73.4531 346° North  Level FlightAware Approximate
Sun 10:27:00 PM 41.9425 -73.4539 346° North  Level FlightAware Approximate
Sun 10:28:00 PM 41.9451 -73.4548 346° North  Level FlightAware Approximate
Sun 10:29:00 PM 41.9477 -73.4556 346° North  Level FlightAware Approximate
Sun 10:30:00 PM 41.9503 -73.4565 346° North  Level FlightAware Approximate
Sun 10:31:00 PM 41.9529 -73.4573 346° North  Level FlightAware Approximate
Sun 10:32:00 PM 41.9554 -73.4582 346° North  Level FlightAware Approximate
Sun 10:33:00 PM 41.9580 -73.4590 346° North  Level FlightAware Approximate
Sun 10:34:00 PM 41.9606 -73.4598 346° North  Level FlightAware Approximate
Sun 10:35:00 PM 41.9632 -73.4607 346° North  Level FlightAware Approximate
Sun 10:36:00 PM 41.9658 -73.4615 346° North  Level FlightAware Approximate
Sun 10:37:00 PM 41.9684 -73.4623 346° North  Level FlightAware Approximate
Sun 10:38:00 PM 41.9710 -73.4632 346° North  Level FlightAware Approximate
Sun 10:39:00 PM 41.9736 -73.4640 347° North  Level FlightAware Approximate
Sun 10:40:00 PM 41.9762 -73.4649 347° North  Level FlightAware Approximate
Sun 10:41:00 PM 41.9787 -73.4657 346° North  Level FlightAware Approximate
Sun 10:42:00 PM 41.9813 -73.4665 346° North  Level FlightAware Approximate
Sun 10:43:00 PM 41.9839 -73.4674 347° North  Level FlightAware Approximate
Sun 10:44:00 PM 41.9865 -73.4682 347° North  Level FlightAware Approximate
Sun 10:45:00 PM 41.9891 -73.4690 346° North  Level FlightAware Approximate
Sun 10:46:00 PM 41.9917 -73.4699 347° North  Level FlightAware Approximate
Sun 10:47:00 PM 41.9943 -73.4707 347° North  Level FlightAware Approximate
Sun 10:48:00 PM 41.9969 -73.4715 347° North  Level FlightAware Approximate
Sun 10:49:00 PM 41.9995 -73.4724 346° North  Level FlightAware Approximate
Sun 10:50:00 PM 42.0021 -73.4732 347° North  Level FlightAware Approximate
Sun 10:51:00 PM 42.0047 -73.4741 347° North  Level FlightAware Approximate
Sun 10:52:00 PM 42.0072 -73.4752 340° North  Level Estimated
Sun 10:53:00 PM 42.0097 -73.4762 343° North  Level FlightAware Approximate
Sun 10:54:00 PM 42.0123 -73.4773 343° North  Level FlightAware Approximate
Sun 10:55:00 PM 42.0148 -73.4783 343° North  Level FlightAware Approximate
Sun 10:56:00 PM 42.0173 -73.4794 343° North  Level FlightAware Approximate
Sun 10:57:00 PM 42.0199 -73.4805 343° North  Level FlightAware Approximate
Sun 10:58:00 PM 42.0224 -73.4815 343° North  Level FlightAware Approximate
Sun 10:59:00 PM 42.0250 -73.4826 343° North  Level FlightAware Approximate
Sun 11:00:00 PM 42.0275 -73.4837 343° North  Level FlightAware Approximate
Sun 11:01:00 PM 42.0300 -73.4847 343° North  Level FlightAware Approximate
Sun 11:02:00 PM 42.0326 -73.4858 343° North  Level FlightAware Approximate
Sun 11:03:00 PM 42.0351 -73.4868 343° North  Level FlightAware Approximate
Sun 11:04:00 PM 42.0377 -73.4879 343° North  Level FlightAware Approximate
Sun 11:05:00 PM 42.0402 -73.4890 340° North  Level Estimated
Sun 11:06:00 PM 42.0427 -73.4902 341° North  Level FlightAware Approximate

Login

Don't have an account? Register now (free) for customized features, flight alerts, and more!